createdAt,value
2018-10-17T00:01:50.990Z,47.80
2018-10-17T00:04:21.681Z,42.83
2018-10-17T00:06:51.527Z,48.97
2018-10-17T00:09:21.451Z,50.87
2018-10-17T00:11:50.749Z,48.37
2018-10-17T00:14:21.034Z,48.63
2018-10-17T00:16:51.139Z,50.47
2018-10-17T00:19:20.351Z,42.47
2018-10-17T00:21:51.638Z,43.20
2018-10-17T00:25:24.807Z,50.80
2018-10-17T00:27:54.214Z,43.17
2018-10-17T00:30:24.874Z,44.40
2018-10-17T00:32:55.436Z,41.10
2018-10-17T00:35:24.422Z,47.53
2018-10-17T00:37:53.430Z,43.00
2018-10-17T00:40:25.038Z,44.90
2018-10-17T00:42:56.203Z,41.50
2018-10-17T00:45:25.639Z,50.30
2018-10-17T00:47:56.182Z,49.17
2018-10-17T00:50:25.848Z,43.77
2018-10-17T00:52:54.865Z,48.37
2018-10-17T00:55:25.949Z,44.97
2018-10-17T00:57:55.736Z,42.53
2018-10-17T01:00:25.025Z,43.60
2018-10-17T01:02:54.490Z,47.57
2018-10-17T01:05:24.752Z,45.17
2018-10-17T01:07:55.195Z,45.07
2018-10-17T01:10:26.346Z,47.40
2018-10-17T01:12:56.938Z,48.50
2018-10-17T01:15:26.237Z,53.03
2018-10-17T01:17:56.246Z,46.63
2018-10-17T01:20:27.008Z,56.30
2018-10-17T01:22:58.788Z,47.23
2018-10-17T01:25:32.073Z,48.77
2018-10-17T01:28:01.313Z,49.60
2018-10-17T01:30:35.077Z,51.67
2018-10-17T01:33:04.241Z,47.30
2018-10-17T01:35:34.118Z,44.53
2018-10-17T01:38:04.233Z,45.60
2018-10-17T01:40:33.587Z,51.30
2018-10-17T01:43:04.480Z,43.33
2018-10-17T01:45:36.988Z,46.30
2018-10-17T01:48:06.337Z,47.10
2018-10-17T01:50:35.497Z,49.27
2018-10-17T01:53:04.866Z,46.87
2018-10-17T01:55:34.944Z,48.37
2018-10-17T01:58:04.275Z,45.87
2018-10-17T02:00:35.147Z,43.07
2018-10-17T02:03:05.440Z,55.37
2018-10-17T02:05:35.225Z,45.63
2018-10-17T02:08:04.582Z,46.80
2018-10-17T02:10:35.470Z,46.87
2018-10-17T02:13:04.905Z,44.30
2018-10-17T02:15:34.080Z,48.53
2018-10-17T02:18:03.206Z,44.97
2018-10-17T02:20:33.322Z,46.40
2018-10-17T02:23:02.727Z,53.67
2018-10-17T02:25:33.742Z,52.27
2018-10-17T02:28:03.803Z,47.07
2018-10-17T02:30:32.886Z,51.43
2018-10-17T02:33:03.348Z,48.27
2018-10-17T02:35:34.606Z,48.63
2018-10-17T02:38:05.926Z,45.80
2018-10-17T02:40:36.553Z,49.17
2018-10-17T02:43:06.542Z,49.23
2018-10-17T02:45:36.496Z,54.10
2018-10-17T02:48:05.481Z,49.33
2018-10-17T02:50:39.612Z,53.90
2018-10-17T02:53:09.424Z,52.73
2018-10-17T02:55:38.383Z,56.87
2018-10-17T02:58:07.797Z,55.23
2018-10-17T03:00:38.276Z,54.40
2018-10-17T03:03:08.547Z,52.53
2018-10-17T03:05:39.506Z,53.00
2018-10-17T03:08:08.913Z,53.63
2018-10-17T03:10:38.056Z,52.17
2018-10-17T03:13:08.964Z,58.73
2018-10-17T03:15:39.740Z,56.63
2018-10-17T03:18:11.072Z,59.53
2018-10-17T03:20:40.330Z,58.73
2018-10-17T03:23:10.581Z,59.33
2018-10-17T03:25:40.699Z,62.03
2018-10-17T03:28:09.830Z,56.40
2018-10-17T03:30:41.165Z,59.30
2018-10-17T03:33:10.399Z,54.30
2018-10-17T03:35:42.931Z,65.40
2018-10-17T03:38:13.973Z,60.77
2018-10-17T03:40:44.595Z,60.87
2018-10-17T03:43:17.841Z,55.93
2018-10-17T03:45:47.240Z,60.47
2018-10-17T03:48:17.749Z,59.67
2018-10-17T03:50:49.286Z,61.57
2018-10-17T03:53:22.939Z,56.30
2018-10-17T03:55:53.844Z,55.57
2018-10-17T03:58:36.837Z,49.03
2018-10-17T04:01:18.057Z,50.83
2018-10-17T04:03:47.951Z,60.30
2018-10-17T04:06:17.463Z,53.10
2018-10-17T04:08:46.680Z,50.57
2018-10-17T04:11:16.063Z,57.13
2018-10-17T04:13:45.645Z,57.37
2018-10-17T04:16:16.688Z,52.80
2018-10-17T04:18:47.013Z,58.03
2018-10-17T04:21:17.264Z,63.57
2018-10-17T04:23:47.296Z,69.97
2018-10-17T04:26:17.585Z,63.57
2018-10-17T04:28:49.557Z,68.13
2018-10-17T04:31:20.217Z,71.13
2018-10-17T04:33:52.260Z,78.00
2018-10-17T04:36:23.700Z,87.13
2018-10-17T04:38:52.886Z,76.23
2018-10-17T04:43:57.446Z,73.40
2018-10-17T04:46:26.770Z,78.10
2018-10-17T04:48:56.685Z,86.63
2018-10-17T04:51:26.140Z,102.30
2018-10-17T04:53:57.098Z,75.23
2018-10-17T04:56:27.124Z,84.50
2018-10-17T04:59:01.265Z,95.17
2018-10-17T05:01:37.359Z,142.80
2018-10-17T05:04:06.855Z,110.03
2018-10-17T05:06:36.103Z,110.00
2018-10-17T05:09:14.866Z,158.70
2018-10-17T05:11:44.154Z,161.93
2018-10-17T05:14:13.694Z,106.17
2018-10-17T05:16:43.064Z,162.77
2018-10-17T05:19:16.665Z,127.20
2018-10-17T05:21:49.505Z,107.27
2018-10-17T05:24:20.146Z,108.10
2018-10-17T05:26:51.550Z,151.37
2018-10-17T05:29:23.721Z,138.70
2018-10-17T05:31:55.746Z,139.87
2018-10-17T05:34:25.562Z,185.57
2018-10-17T05:36:57.371Z,177.37
2018-10-17T05:39:26.846Z,226.33
2018-10-17T05:41:56.580Z,167.07
2018-10-17T05:44:26.186Z,198.17
2018-10-17T05:46:56.116Z,128.67
2018-10-17T05:49:25.048Z,141.20
2018-10-17T05:51:54.113Z,135.90
2018-10-17T05:54:24.468Z,155.03
2018-10-17T05:56:55.568Z,127.37
2018-10-17T05:59:24.604Z,111.63
2018-10-17T06:01:53.691Z,97.03
2018-10-17T06:04:22.815Z,97.43
2018-10-17T06:06:51.761Z,116.67
2018-10-17T06:09:21.444Z,121.20
2018-10-17T06:11:50.647Z,148.30
2018-10-17T06:14:19.975Z,102.17
2018-10-17T06:16:49.079Z,95.93
2018-10-17T06:19:18.183Z,108.83
2018-10-17T06:21:47.713Z,132.87
2018-10-17T06:24:16.706Z,116.90
2018-10-17T06:26:45.780Z,110.03
2018-10-17T06:29:15.131Z,116.23
2018-10-17T06:31:44.042Z,86.93
2018-10-17T06:34:13.818Z,117.77
2018-10-17T06:36:43.362Z,98.57
2018-10-17T06:39:13.287Z,107.03
2018-10-17T06:41:42.359Z,105.63
2018-10-17T06:44:11.565Z,111.00
2018-10-17T06:46:40.493Z,110.93
2018-10-17T06:49:09.461Z,104.97
2018-10-17T06:51:38.383Z,97.80
2018-10-17T06:54:07.666Z,96.20
2018-10-17T06:56:36.718Z,81.87
2018-10-17T06:59:07.721Z,97.10
2018-10-17T07:01:36.902Z,92.20
2018-10-17T07:04:06.220Z,76.80
2018-10-17T07:06:35.419Z,71.03
2018-10-17T07:09:06.564Z,69.50
2018-10-17T07:11:35.562Z,74.40
2018-10-17T07:14:05.854Z,82.70
2018-10-17T07:16:35.062Z,78.37
2018-10-17T07:19:04.472Z,61.03
2018-10-17T07:21:35.448Z,56.60
2018-10-17T07:24:04.670Z,62.80
2018-10-17T07:26:34.678Z,74.37
2018-10-17T07:29:03.851Z,65.63
2018-10-17T07:31:32.957Z,74.17
2018-10-17T07:34:02.041Z,68.57
2018-10-17T07:36:30.987Z,54.63
2018-10-17T07:38:59.977Z,62.90
2018-10-17T07:41:28.877Z,51.97
2018-10-17T07:43:57.971Z,51.53
2018-10-17T07:46:27.923Z,60.83
2018-10-17T07:48:57.655Z,61.70
2018-10-17T07:51:26.593Z,50.23
2018-10-17T07:53:55.534Z,46.90
2018-10-17T07:56:25.296Z,46.70
2018-10-17T07:58:54.239Z,35.40
2018-10-17T08:01:23.270Z,32.23
2018-10-17T08:03:52.130Z,32.10
2018-10-17T08:06:21.900Z,29.43
2018-10-17T08:08:50.751Z,30.07
2018-10-17T08:11:19.678Z,26.00
2018-10-17T08:13:48.773Z,29.00
2018-10-17T08:16:18.799Z,21.63
2018-10-17T08:18:47.773Z,20.63
2018-10-17T08:21:17.013Z,17.87
2018-10-17T08:23:46.281Z,15.23
2018-10-17T08:26:16.343Z,16.40
2018-10-17T08:28:45.383Z,17.43
2018-10-17T08:31:14.438Z,18.77
2018-10-17T08:33:43.454Z,17.93
2018-10-17T08:36:12.632Z,20.07
2018-10-17T08:38:41.294Z,15.37
2018-10-17T08:41:10.260Z,19.27
2018-10-17T08:43:39.249Z,18.73
2018-10-17T08:46:08.139Z,20.10
2018-10-17T08:48:37.145Z,20.03
2018-10-17T08:51:06.519Z,17.40
2018-10-17T08:53:36.161Z,14.50
2018-10-17T08:56:05.386Z,15.83
2018-10-17T08:58:34.280Z,16.07
2018-10-17T09:01:04.561Z,12.87
2018-10-17T09:03:33.470Z,11.57
2018-10-17T09:06:02.421Z,11.47
2018-10-17T09:08:31.282Z,14.63
2018-10-17T09:11:00.322Z,7.37
2018-10-17T09:13:29.211Z,12.77
2018-10-17T09:15:58.134Z,8.87
2018-10-17T09:18:27.073Z,9.17
2018-10-17T09:20:56.157Z,10.37
2018-10-17T09:23:24.836Z,9.97
2018-10-17T09:25:53.780Z,10.50
2018-10-17T09:28:22.622Z,8.73
2018-10-17T09:30:52.376Z,6.17
2018-10-17T09:33:21.434Z,7.83
2018-10-17T09:35:51.240Z,10.30
2018-10-17T09:38:20.046Z,10.07
2018-10-17T09:40:49.742Z,9.73
2018-10-17T09:43:18.670Z,9.60
2018-10-17T09:45:47.419Z,8.53
2018-10-17T09:48:16.379Z,14.77
2018-10-17T09:50:45.265Z,8.17
2018-10-17T09:53:16.548Z,7.13
2018-10-17T09:55:45.535Z,7.13
2018-10-17T09:58:14.485Z,7.10
2018-10-17T10:00:49.079Z,7.23
2018-10-17T10:03:18.085Z,6.40
2018-10-17T10:05:48.047Z,6.73
2018-10-17T10:08:17.097Z,7.67
2018-10-17T10:10:46.942Z,8.27
2018-10-17T10:13:16.096Z,7.07
2018-10-17T10:15:45.097Z,8.00
2018-10-17T10:18:14.696Z,8.13
2018-10-17T10:20:44.606Z,5.43
2018-10-17T10:23:13.731Z,6.93
2018-10-17T10:25:43.700Z,4.73
2018-10-17T10:28:12.790Z,5.53
2018-10-17T10:30:41.634Z,6.03
2018-10-17T10:33:10.711Z,4.67
2018-10-17T10:35:39.708Z,7.17
2018-10-17T10:38:09.142Z,4.70
2018-10-17T10:40:38.127Z,5.37
2018-10-17T10:43:07.847Z,3.80
2018-10-17T10:45:37.992Z,7.83
2018-10-17T10:48:09.372Z,7.07
2018-10-17T10:50:38.583Z,5.77
2018-10-17T10:53:07.700Z,6.27
2018-10-17T10:55:39.062Z,3.80
2018-10-17T10:58:10.046Z,5.23
2018-10-17T11:00:43.514Z,4.40
2018-10-17T11:03:13.721Z,4.40
2018-10-17T11:05:44.597Z,5.30
2018-10-17T11:08:15.711Z,5.20
2018-10-17T11:10:46.686Z,6.23
2018-10-17T11:13:17.207Z,3.63
2018-10-17T11:15:47.261Z,6.90
2018-10-17T11:18:16.463Z,4.03
2018-10-17T11:20:46.201Z,5.33
2018-10-17T11:23:17.857Z,5.57
2018-10-17T11:25:51.780Z,5.53
2018-10-17T11:28:22.325Z,4.33
2018-10-17T11:30:57.751Z,7.00
2018-10-17T11:33:28.366Z,4.73
2018-10-17T11:36:02.464Z,8.23
2018-10-17T11:38:33.718Z,8.40
2018-10-17T11:41:04.208Z,7.87
2018-10-17T11:43:36.169Z,8.23
2018-10-17T11:46:05.442Z,6.53
2018-10-17T11:48:34.949Z,5.67
2018-10-17T11:51:04.857Z,7.87
2018-10-17T11:53:34.702Z,5.83
2018-10-17T11:56:05.205Z,6.50
2018-10-17T11:58:40.931Z,4.07
2018-10-17T12:01:13.301Z,7.70
2018-10-17T12:03:44.415Z,5.60
2018-10-17T12:06:17.186Z,9.53
2018-10-17T12:08:52.094Z,10.27
2018-10-17T12:11:42.292Z,10.13
2018-10-17T12:17:52.190Z,7.00
2018-10-17T12:23:19.826Z,9.63
2018-10-17T12:26:04.154Z,8.57
2018-10-17T12:28:36.807Z,7.97
2018-10-17T12:31:20.277Z,10.73
2018-10-17T12:33:53.234Z,6.70
2018-10-17T12:36:25.663Z,8.40
2018-10-17T12:39:00.653Z,10.13
2018-10-17T12:41:48.954Z,5.33
2018-10-17T12:44:30.314Z,10.23
2018-10-17T12:47:44.514Z,13.00
2018-10-17T12:50:21.018Z,12.97
2018-10-17T12:52:50.580Z,21.20
2018-10-17T12:55:19.631Z,26.57
2018-10-17T12:57:52.025Z,11.37
2018-10-17T13:00:22.017Z,10.07
2018-10-17T13:02:51.220Z,5.27
2018-10-17T13:05:27.181Z,9.00
2018-10-17T13:07:57.795Z,7.87
2018-10-17T13:10:26.937Z,7.33
2018-10-17T13:12:56.248Z,5.77
2018-10-17T13:15:26.645Z,7.40
2018-10-17T13:17:56.583Z,8.53
2018-10-17T13:20:31.048Z,7.80
2018-10-17T13:23:02.546Z,9.93
2018-10-17T13:25:37.769Z,5.13
2018-10-17T13:28:09.106Z,5.83
2018-10-17T13:30:39.397Z,6.33
2018-10-17T13:33:08.634Z,6.17
2018-10-17T13:35:37.639Z,8.83
2018-10-17T13:38:08.800Z,3.67
2018-10-17T13:40:39.734Z,6.30
2018-10-17T13:43:10.128Z,4.27
2018-10-17T13:45:41.745Z,4.43
2018-10-17T13:48:12.431Z,9.77
2018-10-17T13:50:42.347Z,5.30
2018-10-17T13:53:13.783Z,8.27
2018-10-17T13:55:45.113Z,6.57
2018-10-17T13:58:14.516Z,5.37
2018-10-17T14:00:49.056Z,2.13
2018-10-17T14:03:19.672Z,6.40
2018-10-17T14:05:50.216Z,6.53
2018-10-17T14:08:21.660Z,4.97
2018-10-17T14:10:53.034Z,8.40
2018-10-17T14:13:26.849Z,6.67
2018-10-17T14:15:57.769Z,4.20
2018-10-17T14:18:30.954Z,4.80
2018-10-17T14:21:03.008Z,3.63
2018-10-17T14:23:36.704Z,4.57
2018-10-17T14:26:07.246Z,8.90
2018-10-17T14:28:39.527Z,9.27
2018-10-17T14:31:08.513Z,11.43
2018-10-17T14:33:41.611Z,9.87
2018-10-17T14:36:10.625Z,5.13
2018-10-17T14:38:39.531Z,10.43
2018-10-17T14:41:09.183Z,7.17
2018-10-17T14:43:38.089Z,6.20
2018-10-17T14:46:07.230Z,8.47
2018-10-17T14:52:11.349Z,7.97
2018-10-17T14:54:41.302Z,9.60
2018-10-17T14:57:11.171Z,6.03
2018-10-17T14:59:40.907Z,9.53
2018-10-17T15:02:11.835Z,6.13
2018-10-17T15:04:41.002Z,10.57
2018-10-17T15:07:14.166Z,10.20
2018-10-17T15:09:44.671Z,7.97
2018-10-17T15:12:14.217Z,10.20
2018-10-17T15:14:44.236Z,10.57
2018-10-17T15:17:13.664Z,9.27
2018-10-17T15:19:43.910Z,8.27
2018-10-17T15:22:13.174Z,11.23
2018-10-17T15:24:46.179Z,10.70
2018-10-17T15:27:16.451Z,10.43
2018-10-17T15:29:47.773Z,9.00
2018-10-17T15:32:18.373Z,8.33
2018-10-17T15:34:50.995Z,7.40
2018-10-17T15:40:06.583Z,10.73
2018-10-17T15:42:37.181Z,10.27
2018-10-17T15:45:12.683Z,7.93
2018-10-17T15:47:42.820Z,8.57
2018-10-17T15:50:11.985Z,7.93
2018-10-17T15:55:39.200Z,9.77
2018-10-17T15:58:09.388Z,10.60
2018-10-17T16:00:44.080Z,10.53
2018-10-17T16:03:15.175Z,10.73
2018-10-17T16:05:45.441Z,8.37
2018-10-17T16:10:49.458Z,6.80
2018-10-17T16:13:19.342Z,12.47
2018-10-17T16:15:48.538Z,7.23
2018-10-17T16:18:59.765Z,12.47
2018-10-17T16:21:32.135Z,7.57
2018-10-17T16:24:02.538Z,10.30
2018-10-17T16:26:31.469Z,8.50
2018-10-17T16:29:04.749Z,9.83
2018-10-17T16:31:34.284Z,12.33
2018-10-17T16:39:54.888Z,10.60
2018-10-17T16:47:57.045Z,12.87
2018-10-17T16:50:28.667Z,11.20
2018-10-17T16:52:58.030Z,11.10
2018-10-17T16:55:27.172Z,12.83
2018-10-17T16:58:09.697Z,13.70
2018-10-17T17:00:38.969Z,14.33
2018-10-17T17:03:08.190Z,10.73
2018-10-17T17:05:37.429Z,11.93
2018-10-17T17:08:06.297Z,9.80
2018-10-17T17:10:37.794Z,11.77
2018-10-17T17:13:07.689Z,12.17
2018-10-17T17:15:36.576Z,9.93
2018-10-17T17:18:05.497Z,14.57
2018-10-17T17:20:34.458Z,10.00
2018-10-17T17:23:03.770Z,13.23
2018-10-17T17:25:32.862Z,8.67
2018-10-17T17:28:02.975Z,13.50
2018-10-17T17:30:36.783Z,15.17
2018-10-17T17:37:12.882Z,11.50
2018-10-17T17:39:42.287Z,15.73
2018-10-17T17:42:11.953Z,11.90
2018-10-17T17:44:40.970Z,13.80
2018-10-17T17:47:10.682Z,9.30
2018-10-17T17:49:40.154Z,13.17
2018-10-17T17:52:09.433Z,16.20
2018-10-17T17:54:38.406Z,12.40
2018-10-17T17:57:08.393Z,11.13
2018-10-17T17:59:52.997Z,16.07
2018-10-17T18:02:22.216Z,11.77
2018-10-17T18:05:54.898Z,14.27
2018-10-17T18:08:26.049Z,18.97
2018-10-17T18:10:55.344Z,19.37
2018-10-17T18:13:26.773Z,14.63
2018-10-17T18:15:58.163Z,12.87
2018-10-17T18:18:30.703Z,12.63
2018-10-17T18:20:59.943Z,13.47
2018-10-17T18:23:29.633Z,16.40
2018-10-17T18:28:58.521Z,16.97
2018-10-17T18:31:27.689Z,20.37
2018-10-17T18:33:56.810Z,12.93
2018-10-17T18:36:26.917Z,17.83
2018-10-17T18:38:57.810Z,16.37
2018-10-17T18:41:29.578Z,16.37
2018-10-17T18:43:59.317Z,17.33
2018-10-17T18:46:30.395Z,21.73
2018-10-17T18:49:00.906Z,14.73
2018-10-17T18:51:32.806Z,17.40
2018-10-17T18:54:24.313Z,14.23
2018-10-17T18:56:58.437Z,13.13
2018-10-17T18:59:28.141Z,15.33
2018-10-17T19:01:58.011Z,18.00
2018-10-17T19:04:29.885Z,17.93
2018-10-17T19:07:01.287Z,17.57
2018-10-17T19:09:33.419Z,17.13
2018-10-17T19:12:02.637Z,16.10
2018-10-17T19:14:35.706Z,19.30
2018-10-17T19:17:07.376Z,16.73
2018-10-17T19:19:40.146Z,19.70
2018-10-17T19:22:11.847Z,19.87
2018-10-17T19:24:43.021Z,22.20
2018-10-17T19:27:13.722Z,24.97
2018-10-17T19:29:45.195Z,21.40
2018-10-17T19:32:14.926Z,20.33
2018-10-17T19:34:44.429Z,19.67
2018-10-17T19:37:14.398Z,20.97
2018-10-17T19:39:49.558Z,22.60
2018-10-17T19:42:20.288Z,23.90
2018-10-17T19:44:56.440Z,22.60
2018-10-17T19:47:28.530Z,21.13
2018-10-17T19:49:57.987Z,16.27
2018-10-17T19:52:28.767Z,19.23
2018-10-17T19:54:59.340Z,17.00
2018-10-17T19:57:28.416Z,18.80
2018-10-17T19:59:58.851Z,20.13
2018-10-17T20:02:28.683Z,22.37
2018-10-17T20:04:57.701Z,21.27
2018-10-17T20:07:27.768Z,15.57
2018-10-17T20:10:00.047Z,15.23
2018-10-17T20:12:31.605Z,16.57
2018-10-17T20:15:01.695Z,17.73
2018-10-17T20:17:31.960Z,17.93
2018-10-17T20:20:03.255Z,14.37
2018-10-17T20:22:35.983Z,16.63
2018-10-17T20:25:05.574Z,19.60
2018-10-17T20:27:38.209Z,19.20
2018-10-17T20:30:24.359Z,16.67
2018-10-17T20:33:13.442Z,16.60
2018-10-17T20:38:31.779Z,17.57
2018-10-17T20:41:04.138Z,20.07
2018-10-17T20:43:35.069Z,20.93
2018-10-17T20:48:46.234Z,19.67
2018-10-17T20:51:16.731Z,20.80
2018-10-17T20:57:24.279Z,23.40
2018-10-17T20:59:53.360Z,24.50
2018-10-17T21:02:22.865Z,21.47
2018-10-17T21:04:52.772Z,27.27
2018-10-17T21:07:27.248Z,27.17
2018-10-17T21:10:03.620Z,26.37
2018-10-17T21:12:36.168Z,27.90
2018-10-17T21:15:09.959Z,26.27
2018-10-17T21:17:44.256Z,29.23
2018-10-17T21:20:15.514Z,26.73
2018-10-17T21:22:48.257Z,26.63
2018-10-17T21:25:17.754Z,29.53
2018-10-17T21:27:49.317Z,23.27
2018-10-17T21:30:28.520Z,21.73
2018-10-17T21:32:58.352Z,28.00
2018-10-17T21:35:28.372Z,19.53
2018-10-17T21:37:58.501Z,27.70
2018-10-17T21:40:28.314Z,24.07
2018-10-17T21:42:57.447Z,20.17
2018-10-17T21:45:26.853Z,25.30
2018-10-17T21:48:05.317Z,19.83
2018-10-17T21:50:36.207Z,19.73
2018-10-17T21:53:08.307Z,20.73
2018-10-17T21:55:39.487Z,20.60
2018-10-17T21:58:09.015Z,20.43
2018-10-17T22:00:39.734Z,18.77
2018-10-17T22:03:10.445Z,20.33
2018-10-17T22:05:48.134Z,20.83
2018-10-17T22:08:18.682Z,18.50
2018-10-17T22:10:47.936Z,23.73
2018-10-17T22:13:17.492Z,19.10
2018-10-17T22:15:51.493Z,16.77
2018-10-17T22:18:22.563Z,17.00
2018-10-17T22:20:52.836Z,17.83
2018-10-17T22:23:27.634Z,26.47
2018-10-17T22:25:59.190Z,22.00
2018-10-17T22:28:30.783Z,18.13
2018-10-17T22:31:00.705Z,17.90
2018-10-17T22:33:29.835Z,19.63
2018-10-17T22:36:01.590Z,18.87
2018-10-17T22:38:32.360Z,21.17
2018-10-17T22:41:02.436Z,23.23
2018-10-17T22:43:33.420Z,21.33
2018-10-17T22:46:02.436Z,19.53
2018-10-17T22:48:31.423Z,20.10
2018-10-17T22:51:05.412Z,20.33
2018-10-17T22:53:34.634Z,20.23
2018-10-17T22:56:03.882Z,22.70
2018-10-17T22:58:35.988Z,21.70
2018-10-17T23:01:09.829Z,22.20
2018-10-17T23:03:38.975Z,17.53
2018-10-17T23:06:08.503Z,21.77
2018-10-17T23:08:37.473Z,20.73
2018-10-17T23:11:08.047Z,20.40
2018-10-17T23:13:39.881Z,22.47
2018-10-17T23:16:13.104Z,22.97
2018-10-17T23:18:42.188Z,18.50
2018-10-17T23:21:13.485Z,21.30
2018-10-17T23:23:45.332Z,19.70
2018-10-17T23:26:14.957Z,19.10
2018-10-17T23:28:49.908Z,18.13
2018-10-17T23:31:19.852Z,19.90
2018-10-17T23:33:49.946Z,24.30
2018-10-17T23:36:20.645Z,24.00
2018-10-17T23:38:51.532Z,21.13
2018-10-17T23:41:21.333Z,22.67
2018-10-17T23:43:50.442Z,20.97
2018-10-17T23:46:19.586Z,22.07
2018-10-17T23:48:48.580Z,21.87
2018-10-17T23:51:22.057Z,19.80
2018-10-17T23:53:52.366Z,20.30
2018-10-17T23:56:21.585Z,21.80
2018-10-17T23:58:56.555Z,22.80
